createdAt,value
2017-08-23T03:30:21.653Z,54.40
2017-08-23T03:32:49.847Z,54.40
2017-08-23T03:35:17.490Z,54.80
2017-08-23T03:37:45.505Z,55.00
2017-08-23T03:40:13.173Z,55.00
2017-08-23T03:42:40.832Z,55.00
2017-08-23T03:45:08.508Z,55.00
2017-08-23T03:47:36.937Z,54.70
2017-08-23T03:50:04.829Z,54.60
2017-08-23T03:52:33.182Z,54.70
2017-08-23T03:55:01.333Z,54.50
2017-08-23T03:57:28.971Z,54.70
2017-08-23T03:59:56.592Z,54.80
2017-08-23T04:02:24.242Z,54.60
2017-08-23T04:04:51.919Z,54.60
2017-08-23T04:07:19.660Z,54.70
2017-08-23T04:09:47.312Z,55.00
2017-08-23T04:12:14.970Z,55.00
2017-08-23T04:14:42.625Z,55.00
2017-08-23T04:17:10.295Z,55.00
2017-08-23T04:19:37.952Z,54.80
2017-08-23T04:22:05.959Z,54.50
2017-08-23T04:24:33.611Z,54.70
2017-08-23T04:27:01.262Z,55.10
2017-08-23T04:29:28.911Z,55.40
2017-08-23T04:31:56.808Z,55.30
2017-08-23T04:34:24.467Z,55.10
2017-08-23T04:36:52.121Z,55.30
2017-08-23T04:39:19.777Z,55.50
2017-08-23T04:41:47.408Z,55.30
2017-08-23T04:44:15.081Z,55.30
2017-08-23T04:46:42.755Z,55.30
2017-08-23T04:49:10.820Z,55.20
2017-08-23T04:51:38.455Z,55.40
2017-08-23T04:54:06.094Z,55.20
2017-08-23T04:56:33.769Z,55.10
2017-08-23T04:59:01.404Z,54.90
2017-08-23T05:01:29.077Z,54.80
2017-08-23T05:03:56.734Z,54.80
2017-08-23T05:06:24.750Z,54.90
2017-08-23T05:08:53.144Z,55.00
2017-08-23T05:11:20.816Z,55.00
2017-08-23T05:13:48.470Z,55.00
2017-08-23T05:16:16.109Z,55.00
2017-08-23T05:18:43.794Z,54.90
2017-08-23T05:21:11.425Z,54.80
2017-08-23T05:23:39.093Z,54.60
2017-08-23T05:26:06.736Z,54.40
2017-08-23T05:28:34.813Z,54.10
2017-08-23T05:31:02.502Z,53.50
2017-08-23T05:33:30.162Z,53.30
2017-08-23T05:35:57.847Z,53.10
2017-08-23T05:38:25.484Z,53.40
2017-08-23T05:40:53.117Z,53.50
2017-08-23T05:43:20.745Z,54.00
2017-08-23T05:45:56.158Z,54.30
2017-08-23T05:48:24.118Z,54.70
2017-08-23T05:50:52.179Z,54.80
2017-08-23T05:53:19.817Z,55.00
2017-08-23T05:55:47.452Z,54.50
2017-08-23T05:58:15.130Z,53.40
2017-08-23T06:00:42.786Z,53.00
2017-08-23T06:03:10.444Z,52.80
2017-08-23T06:05:38.192Z,52.50
2017-08-23T06:08:05.844Z,52.40
2017-08-23T06:10:33.496Z,51.90
2017-08-23T06:13:01.198Z,52.00
2017-08-23T06:15:28.841Z,52.10
2017-08-23T06:17:56.837Z,51.60
2017-08-23T06:20:24.492Z,52.50
2017-08-23T06:22:52.134Z,52.30
2017-08-23T06:25:19.809Z,52.30
2017-08-23T06:27:47.486Z,51.80
2017-08-23T06:30:15.162Z,51.10
2017-08-23T06:32:42.811Z,49.80
2017-08-23T06:35:10.475Z,50.20
2017-08-23T06:37:38.123Z,49.70
2017-08-23T06:40:05.793Z,49.50
2017-08-23T06:42:33.498Z,49.10
2017-08-23T06:45:02.586Z,49.20
2017-08-23T06:47:30.223Z,48.60
2017-08-23T06:49:57.861Z,49.20
2017-08-23T06:52:25.510Z,49.70
2017-08-23T06:54:53.151Z,48.60
2017-08-23T06:57:20.792Z,47.50
2017-08-23T06:59:48.448Z,47.70
2017-08-23T07:02:16.125Z,46.90
2017-08-23T07:04:43.759Z,47.00
2017-08-23T07:07:11.392Z,46.10
2017-08-23T07:09:39.410Z,46.60
2017-08-23T07:12:07.052Z,46.00
2017-08-23T07:14:34.678Z,45.50
2017-08-23T07:17:02.716Z,45.40
2017-08-23T07:19:30.403Z,45.90
2017-08-23T07:21:58.053Z,46.20
2017-08-23T07:24:25.735Z,45.50
2017-08-23T07:26:53.389Z,45.60
2017-08-23T07:29:21.070Z,45.20
2017-08-23T07:31:48.706Z,45.10
2017-08-23T07:34:16.405Z,44.80
2017-08-23T07:36:44.050Z,45.50
2017-08-23T07:39:12.078Z,45.00
2017-08-23T07:41:39.723Z,45.40
2017-08-23T07:44:07.388Z,44.90
2017-08-23T07:46:35.062Z,44.30
2017-08-23T07:49:02.719Z,44.20
2017-08-23T07:51:31.154Z,42.80
2017-08-23T07:53:58.807Z,42.80
2017-08-23T07:56:26.851Z,42.70
2017-08-23T07:58:54.521Z,42.70
2017-08-23T08:01:22.194Z,42.30
2017-08-23T08:03:50.868Z,42.70
2017-08-23T08:06:18.713Z,42.60
2017-08-23T08:08:46.379Z,42.00
2017-08-23T08:11:14.012Z,41.50
2017-08-23T08:13:41.666Z,41.50
2017-08-23T08:16:09.321Z,40.60
2017-08-23T08:18:37.423Z,41.00
2017-08-23T08:21:05.073Z,40.30
2017-08-23T08:23:32.720Z,39.80
2017-08-23T08:26:00.491Z,40.80
2017-08-23T08:28:28.129Z,40.50
2017-08-23T08:30:55.788Z,40.00
2017-08-23T08:33:23.454Z,39.40
2017-08-23T08:35:51.123Z,39.20
2017-08-23T08:38:18.771Z,38.80
2017-08-23T08:40:46.433Z,38.30
2017-08-23T08:43:14.453Z,37.70
2017-08-23T08:45:42.182Z,37.50
2017-08-23T08:48:09.804Z,36.50
2017-08-23T08:50:37.819Z,35.60
2017-08-23T08:53:05.465Z,34.40
2017-08-23T08:55:33.124Z,33.50
2017-08-23T08:58:01.120Z,32.60
2017-08-23T09:00:28.773Z,32.10
2017-08-23T09:02:56.437Z,30.50
2017-08-23T09:05:24.552Z,29.60
2017-08-23T09:07:52.212Z,29.00
2017-08-23T09:10:19.873Z,27.40
2017-08-23T09:12:47.940Z,27.50
2017-08-23T09:15:15.587Z,26.20
2017-08-23T09:17:43.250Z,24.60
2017-08-23T09:20:11.340Z,24.30
2017-08-23T09:22:38.967Z,24.60
2017-08-23T09:25:06.597Z,24.30
2017-08-23T09:27:34.721Z,22.50
2017-08-23T09:30:02.370Z,22.10
2017-08-23T09:32:30.786Z,20.90
2017-08-23T09:34:58.841Z,20.90
2017-08-23T09:37:26.500Z,20.00
2017-08-23T09:39:54.131Z,19.10
2017-08-23T09:42:22.325Z,19.50
2017-08-23T09:44:50.745Z,18.20
2017-08-23T09:47:18.352Z,18.10
2017-08-23T09:49:46.437Z,17.70
2017-08-23T09:52:14.079Z,17.90
2017-08-23T09:54:42.008Z,17.30
2017-08-23T09:57:10.038Z,16.30
2017-08-23T09:59:37.714Z,16.30
2017-08-23T10:02:05.363Z,16.40
2017-08-23T10:04:33.428Z,16.20
2017-08-23T10:07:01.289Z,15.90
2017-08-23T10:09:28.937Z,16.00
2017-08-23T10:11:56.614Z,15.70
2017-08-23T10:14:24.240Z,16.00
2017-08-23T10:16:52.490Z,16.20
2017-08-23T10:19:20.143Z,15.00
2017-08-23T10:21:47.864Z,15.00
2017-08-23T10:24:16.161Z,14.30
2017-08-23T10:26:43.852Z,14.10
2017-08-23T10:29:11.633Z,13.70
2017-08-23T10:31:39.313Z,14.70
2017-08-23T10:34:07.611Z,17.40
2017-08-23T10:36:35.239Z,19.50
2017-08-23T10:39:02.890Z,18.70
2017-08-23T10:41:30.574Z,17.40
2017-08-23T10:43:58.229Z,15.90
2017-08-23T10:46:25.913Z,15.30
2017-08-23T10:48:53.546Z,14.90
2017-08-23T10:51:21.207Z,14.80
2017-08-23T10:53:48.948Z,14.40
2017-08-23T10:56:16.933Z,14.30
2017-08-23T10:58:44.589Z,14.00
2017-08-23T11:01:12.259Z,12.60
2017-08-23T11:03:39.946Z,13.00
2017-08-23T11:06:07.715Z,12.80
2017-08-23T11:08:35.391Z,12.50
2017-08-23T11:11:03.110Z,12.40
2017-08-23T11:13:31.086Z,12.10
2017-08-23T11:15:58.705Z,12.30
2017-08-23T11:18:26.335Z,12.30
2017-08-23T11:20:53.988Z,12.00
2017-08-23T11:23:21.665Z,12.40
2017-08-23T11:25:49.332Z,12.10
2017-08-23T11:28:16.988Z,12.00
2017-08-23T11:30:44.652Z,12.00
2017-08-23T11:33:12.314Z,11.50
2017-08-23T11:35:40.292Z,11.80
2017-08-23T11:38:07.947Z,11.90
2017-08-23T11:40:35.604Z,12.40
2017-08-23T11:43:03.291Z,11.80
2017-08-23T11:45:30.962Z,11.60
2017-08-23T11:47:58.645Z,11.70
2017-08-23T11:50:26.288Z,11.30
2017-08-23T11:52:53.981Z,11.30
2017-08-23T11:55:21.673Z,11.20
2017-08-23T11:57:49.328Z,11.20
2017-08-23T12:00:16.997Z,11.30
2017-08-23T12:02:44.682Z,11.40
2017-08-23T12:05:12.358Z,11.90
2017-08-23T12:07:40.405Z,12.40
2017-08-23T12:10:08.983Z,13.00
2017-08-23T12:12:36.628Z,14.00
2017-08-23T12:15:04.758Z,14.70
2017-08-23T12:17:34.357Z,15.70
2017-08-23T12:20:03.079Z,16.90
2017-08-23T12:22:30.742Z,18.60
2017-08-23T12:24:58.376Z,19.30
2017-08-23T12:27:26.044Z,19.50
2017-08-23T12:29:53.703Z,19.50
2017-08-23T12:32:21.374Z,19.60
2017-08-23T12:34:49.023Z,19.60
2017-08-23T12:37:17.072Z,20.60
2017-08-23T12:39:44.722Z,21.10
2017-08-23T12:42:12.378Z,21.60
2017-08-23T12:44:40.122Z,21.50
2017-08-23T12:47:07.781Z,21.50
2017-08-23T12:49:35.441Z,21.80
2017-08-23T12:52:03.351Z,21.40
2017-08-23T12:54:31.030Z,21.80
2017-08-23T12:56:58.665Z,22.40
2017-08-23T12:59:26.674Z,22.90
2017-08-23T13:01:54.325Z,23.20
2017-08-23T13:04:22.816Z,23.50
2017-08-23T13:06:50.603Z,23.50
2017-08-23T13:09:18.274Z,24.50
2017-08-23T13:11:45.959Z,24.90
2017-08-23T13:14:13.658Z,24.60
2017-08-23T13:16:41.317Z,24.40
2017-08-23T13:19:09.106Z,24.10
2017-08-23T13:21:36.981Z,23.90
2017-08-23T13:24:04.696Z,24.00
2017-08-23T13:26:32.806Z,24.00
2017-08-23T13:29:00.445Z,24.70
2017-08-23T13:31:29.158Z,25.10
2017-08-23T13:33:56.813Z,24.40
2017-08-23T13:36:24.486Z,25.60
2017-08-23T13:38:53.081Z,25.90
2017-08-23T13:41:20.758Z,26.30
2017-08-23T13:43:48.423Z,25.30
2017-08-23T13:46:16.540Z,25.30
2017-08-23T13:48:44.206Z,25.30
2017-08-23T13:51:11.985Z,25.60
2017-08-23T13:53:40.036Z,26.40
2017-08-23T13:56:07.689Z,25.60
2017-08-23T13:58:35.324Z,24.90
2017-08-23T14:01:03.403Z,26.20
2017-08-23T14:03:31.063Z,25.50
2017-08-23T14:05:58.803Z,25.90
2017-08-23T14:08:26.802Z,25.80
2017-08-23T14:10:54.454Z,27.00
2017-08-23T14:13:22.100Z,26.20
2017-08-23T14:15:50.124Z,27.30
2017-08-23T14:18:17.772Z,27.70
2017-08-23T14:20:45.413Z,26.40
2017-08-23T14:23:13.422Z,26.30
2017-08-23T14:25:41.078Z,27.00
2017-08-23T14:28:08.754Z,26.60
2017-08-23T14:30:36.847Z,26.60
2017-08-23T14:33:04.516Z,27.70
2017-08-23T14:35:32.197Z,27.40
2017-08-23T14:38:00.441Z,28.20
2017-08-23T14:40:28.449Z,27.10
2017-08-23T14:42:56.365Z,27.60
2017-08-23T14:45:24.430Z,27.10
2017-08-23T14:47:52.132Z,26.70
2017-08-23T14:50:19.895Z,26.60
2017-08-23T14:52:47.945Z,27.00
2017-08-23T14:55:16.388Z,27.90
2017-08-23T14:57:44.135Z,27.90
2017-08-23T15:00:12.742Z,28.40
2017-08-23T15:02:40.390Z,27.90
2017-08-23T15:05:08.053Z,27.90
2017-08-23T15:07:36.552Z,28.10
2017-08-23T15:10:04.315Z,28.20
2017-08-23T15:12:32.040Z,28.80
2017-08-23T15:15:00.069Z,28.20
2017-08-23T15:17:27.717Z,28.80
2017-08-23T15:19:55.364Z,29.30
2017-08-23T15:22:23.443Z,28.80
2017-08-23T15:24:51.588Z,28.60
2017-08-23T15:27:19.338Z,28.50
2017-08-23T15:29:47.533Z,28.30
2017-08-23T15:32:15.159Z,28.50
2017-08-23T15:34:42.816Z,29.10
2017-08-23T15:37:10.864Z,29.00
2017-08-23T15:39:38.524Z,29.40
2017-08-23T15:42:06.185Z,28.70
2017-08-23T15:44:34.312Z,28.80
2017-08-23T15:47:01.948Z,28.40
2017-08-23T15:49:29.575Z,29.70
2017-08-23T15:51:57.616Z,29.90
2017-08-23T15:54:25.277Z,29.60
2017-08-23T15:56:52.941Z,29.70
2017-08-23T15:59:21.846Z,30.40
2017-08-23T16:01:49.530Z,29.90
2017-08-23T16:04:17.184Z,29.70
2017-08-23T16:06:45.250Z,29.60
2017-08-23T16:09:12.909Z,29.90
2017-08-23T16:11:40.543Z,30.60
2017-08-23T16:14:08.540Z,30.10
2017-08-23T16:16:36.216Z,29.90
2017-08-23T16:19:03.859Z,29.60
2017-08-23T16:21:31.931Z,29.60
2017-08-23T16:23:59.573Z,29.70
2017-08-23T16:26:28.024Z,29.40
2017-08-23T16:28:56.147Z,29.40
2017-08-23T16:31:23.845Z,29.80
2017-08-23T16:33:51.505Z,29.60
2017-08-23T16:36:19.499Z,29.80
2017-08-23T16:38:47.165Z,30.90
2017-08-23T16:41:14.875Z,30.40
2017-08-23T16:43:42.566Z,31.40
2017-08-23T16:46:10.316Z,31.90
2017-08-23T16:48:38.363Z,32.30
2017-08-23T16:51:06.093Z,31.70
2017-08-23T16:53:34.194Z,31.70
2017-08-23T16:56:01.852Z,31.50
2017-08-23T16:58:29.485Z,32.40
2017-08-23T17:00:57.583Z,32.70
2017-08-23T17:03:25.242Z,32.80
2017-08-23T17:05:52.892Z,32.40
2017-08-23T17:08:20.989Z,32.40
2017-08-23T17:10:48.630Z,32.00
2017-08-23T17:13:16.271Z,32.40
2017-08-23T17:15:44.368Z,32.10
2017-08-23T17:18:12.823Z,32.90
2017-08-23T17:20:40.505Z,33.60
2017-08-23T17:23:08.540Z,33.70
2017-08-23T17:25:36.206Z,33.90
2017-08-23T17:28:03.871Z,33.10
2017-08-23T17:30:32.155Z,33.20
2017-08-23T17:32:59.788Z,33.60
2017-08-23T17:35:27.535Z,34.00
2017-08-23T17:37:56.131Z,34.70
2017-08-23T17:40:23.813Z,35.10
2017-08-23T17:42:51.495Z,35.60
2017-08-23T17:45:19.171Z,35.50
2017-08-23T17:47:46.824Z,35.60
2017-08-23T17:50:14.583Z,36.00
2017-08-23T17:52:42.338Z,35.70
2017-08-23T17:55:10.324Z,35.80
2017-08-23T17:57:37.964Z,36.20
2017-08-23T18:00:05.709Z,36.90
2017-08-23T18:02:33.669Z,37.20
2017-08-23T18:05:01.352Z,37.80
2017-08-23T18:07:29.196Z,38.40
2017-08-23T18:09:56.883Z,39.00
2017-08-23T18:12:25.380Z,39.50
2017-08-23T18:14:53.104Z,39.20
2017-08-23T18:17:20.849Z,39.80
2017-08-23T18:19:48.534Z,39.50
2017-08-23T18:22:16.227Z,39.80
2017-08-23T18:24:43.954Z,40.60
2017-08-23T18:27:12.272Z,40.30
2017-08-23T18:29:40.007Z,40.20
2017-08-23T18:32:09.172Z,40.20
2017-08-23T18:34:37.259Z,40.10
2017-08-23T18:37:05.014Z,39.70
2017-08-23T18:39:32.793Z,39.80
2017-08-23T18:42:00.558Z,40.10
2017-08-23T18:44:28.238Z,40.20
2017-08-23T18:46:55.906Z,40.20
2017-08-23T18:49:24.353Z,40.30
2017-08-23T18:51:52.957Z,40.50
2017-08-23T18:54:20.705Z,40.50
2017-08-23T18:56:48.401Z,40.40
2017-08-23T18:59:16.520Z,40.30
2017-08-23T19:01:44.262Z,39.90
2017-08-23T19:04:11.985Z,40.10
2017-08-23T19:06:39.685Z,40.90
2017-08-23T19:09:07.366Z,40.80
2017-08-23T19:11:35.017Z,41.50
2017-08-23T19:14:03.106Z,41.50
2017-08-23T19:16:30.768Z,42.20
2017-08-23T19:18:58.539Z,41.90
2017-08-23T19:21:26.226Z,41.60
2017-08-23T19:23:53.986Z,41.30
2017-08-23T19:26:21.687Z,41.10
2017-08-23T19:28:49.369Z,40.80
2017-08-23T19:31:17.126Z,40.50
2017-08-23T19:33:44.772Z,40.80
2017-08-23T19:36:12.441Z,41.50
2017-08-23T19:38:40.109Z,41.80
2017-08-23T19:41:07.888Z,42.10
2017-08-23T19:43:36.693Z,42.50
2017-08-23T19:46:04.706Z,43.00
2017-08-23T19:48:32.421Z,43.40
2017-08-23T19:51:00.271Z,43.20
2017-08-23T19:53:30.127Z,43.20
2017-08-23T19:55:57.823Z,43.20
2017-08-23T19:58:25.497Z,43.60
2017-08-23T20:00:54.429Z,43.60
2017-08-23T20:03:22.111Z,44.80
2017-08-23T20:05:50.211Z,43.80
2017-08-23T20:08:18.667Z,43.50
2017-08-23T20:10:46.355Z,43.30
2017-08-23T20:13:14.348Z,43.00
2017-08-23T20:15:42.076Z,43.10
2017-08-23T20:18:10.748Z,43.10
2017-08-23T20:20:38.963Z,43.30
2017-08-23T20:23:06.623Z,43.40
2017-08-23T20:25:34.294Z,43.90
2017-08-23T20:28:02.306Z,43.90
2017-08-23T20:30:30.694Z,44.20
2017-08-23T20:32:58.325Z,44.10
2017-08-23T20:35:26.386Z,44.10
2017-08-23T20:37:54.224Z,44.60
2017-08-23T20:40:21.863Z,45.10
2017-08-23T20:42:49.543Z,45.20
2017-08-23T20:45:17.213Z,44.70
2017-08-23T20:47:44.919Z,44.60
2017-08-23T20:50:13.169Z,44.50
2017-08-23T20:52:40.934Z,44.70
2017-08-23T20:55:09.035Z,44.90
2017-08-23T20:57:36.712Z,45.00
2017-08-23T21:00:04.378Z,45.00
2017-08-23T21:02:32.062Z,45.00
2017-08-23T21:04:59.706Z,44.90
2017-08-23T21:07:27.418Z,44.90
2017-08-23T21:09:55.090Z,45.00
2017-08-23T21:12:23.124Z,44.70
2017-08-23T21:14:50.793Z,45.30
2017-08-23T21:17:18.438Z,45.20
2017-08-23T21:19:46.225Z,45.10
2017-08-23T21:22:13.886Z,45.10
2017-08-23T21:24:41.968Z,45.10
2017-08-23T21:27:09.600Z,45.10
2017-08-23T21:29:37.265Z,45.60
2017-08-23T21:32:05.266Z,46.50
2017-08-23T21:34:32.917Z,46.90
2017-08-23T21:37:00.892Z,47.00
2017-08-23T21:39:28.990Z,46.70
2017-08-23T21:41:56.625Z,46.80
2017-08-23T21:44:24.275Z,46.10
2017-08-23T21:46:52.377Z,46.50
2017-08-23T21:49:20.022Z,46.50
2017-08-23T21:51:47.675Z,46.80
2017-08-23T21:54:15.788Z,47.00
2017-08-23T21:56:43.449Z,46.80
2017-08-23T21:59:11.113Z,47.00
2017-08-23T22:01:39.165Z,47.10
2017-08-23T22:04:06.830Z,46.80
2017-08-23T22:06:34.506Z,46.80
2017-08-23T22:09:02.542Z,46.70
2017-08-23T22:11:30.175Z,46.80
2017-08-23T22:13:57.899Z,46.80
2017-08-23T22:16:25.900Z,46.80
2017-08-23T22:18:53.533Z,46.70
2017-08-23T22:21:21.197Z,46.70
2017-08-23T22:23:49.296Z,46.60
2017-08-23T22:26:16.965Z,46.60
2017-08-23T22:28:44.633Z,46.90
